Bookmark and Share
Track history (hours):
 

Artvin

Last reported at 2014-Apr-17 18:33 UTC. Time now 2014-Apr-20 16:02 UTC.
Position N 39°56' E 025°57'.

Length 229 m; draft 9.1 m.

Type: Cargo ship. MMSI: 215678000.

NotesDate/timePositionNaut miles runAvg speedWind from/ knotsBaromVisibWave heightAir tempDewpointWater temp
2014-Apr-17 18:33N 39°56' E 025°57'13812.5
2014-Apr-17 07:33N 37°54' E 024°36'1212.2
2014-Apr-17 06:32N 37°42' E 024°31'1212.1
2014-Apr-17 05:33N 37°32' E 024°24'1312.7
2014-Apr-17 04:31N 37°21' E 024°13'1212.7
2014-Apr-17 03:33N 37°11' E 024°04'1212.4
2014-Apr-17 02:33N 37°01' E 023°56'1412.1
2014-Apr-17 01:25N 36°50' E 023°45'1312.4
2014-Apr-17 00:20N 36°38' E 023°37'  
2014-Apr-12 06:25N 33°24' E 031°49'3912.3
2014-Apr-12 03:15N 33°16' E 032°35'912.6
2014-Apr-12 02:33N 33°15' E 032°45'1612.5
2014-Apr-12 01:18N 33°12' E 033°03'912.0
2014-Apr-12 00:33N 33°10' E 033°14'1212.4
2014-Apr-11 23:33N 33°08' E 033°28'1312.7
2014-Apr-11 22:32N 33°05' E 033°44'3012.7
2014-Apr-11 20:09N 32°59' E 034°19'812.9
2014-Apr-11 19:33N 32°58' E 034°28'1313.0
2014-Apr-11 18:33N 32°56' E 034°43'  

Dump ship's entire track history

sailing weather and tide predictions

Artvin — 9HA2782 — position and weather